ウダーチヌイ の空港の天気 - METARとTAF

Polyarny ( UERP / PYJ ) - ロシア ウダーチヌイ
飛行場実況気象(Metar)
観測時間11/27 18:00 YAKT (11/27 09:00 UTC)
風向・風速西南西 1m/s
視程10km以上
天気現象
なし
気温-27℃
湿度76%
気圧1018hPa
METARUERP 270900Z 24001MPS CAVOK M27/M30 Q1018 NOSIG RMK QFE719
過去の天気等 Google飛行場航空写真 Wunderground天気予報

過去48時間のMETAR

飛行場予報(TAF)
発表時間: 11/27 17:00 YAKT (11/27 08:00 UTC)
予報対象時間: 27日18時 YAKT ~ 28日18時 YAKT
風向・風速不定 1m/s
視程7000m
なし
27日18時 YAKT ~ 28日6時 YAKT に一時的に
視程2100m
天気現象弱い雪 もや
全天の4割程度の雲 雲底高度 300m
全天を覆う雲 雲底高度 3050m
28日6時 YAKT ~ 28日18時 YAKT に一時的に
視程2100m
天気現象弱い雪 もや
全天の4割程度の雲 雲底高度 270m
全天を覆う雲 雲底高度 3050m
TAF UERP 270800Z 2709/2809 VRB01MPS 7000 NSC
TEMPO 2709/2721 2100 -SN BR SCT010 OVC100
TEMPO 2721/2809 2100 -SN BR SCT009 OVC100